createdAt,value
2023-05-06T00:00:17.652Z,7.5
2023-05-06T00:02:26.165Z,7.5
2023-05-06T00:04:34.070Z,7.5
2023-05-06T00:06:43.768Z,7.5
2023-05-06T00:08:51.492Z,7.5
2023-05-06T00:10:59.200Z,7.5
2023-05-06T00:13:08.071Z,7.5
2023-05-06T00:15:15.978Z,7.5
2023-05-06T00:17:23.833Z,7.5
2023-05-06T00:19:31.868Z,7.5
2023-05-06T00:21:39.804Z,7.5
2023-05-06T00:23:48.895Z,7.5
2023-05-06T00:25:56.630Z,7.5
2023-05-06T00:28:04.568Z,7.5
2023-05-06T00:30:14.425Z,7.5
2023-05-06T00:32:22.279Z,7.5
2023-05-06T00:34:30.131Z,7.5
2023-05-06T00:36:38.067Z,7.5
2023-05-06T00:38:45.782Z,7.5
2023-05-06T00:40:55.025Z,7.5
2023-05-06T00:43:03.022Z,7.5
2023-05-06T00:45:12.097Z,7.5
2023-05-06T00:47:20.740Z,7.5
2023-05-06T00:49:28.924Z,7.5
2023-05-06T00:51:38.013Z,7.5
2023-05-06T00:53:46.596Z,7.5
2023-05-06T00:55:55.817Z,7.5
2023-05-06T00:58:04.269Z,7.5
2023-05-06T01:00:11.821Z,7.5
2023-05-06T01:02:19.680Z,7.5
2023-05-06T01:04:28.949Z,7.5
2023-05-06T01:06:46.283Z,7.5
2023-05-06T01:08:59.634Z,7.6
2023-05-06T01:11:15.788Z,7.6
2023-05-06T01:13:31.726Z,7.6
2023-05-06T01:15:45.240Z,7.6
2023-05-06T01:17:54.838Z,7.5
2023-05-06T01:20:05.262Z,7.5
2023-05-06T01:22:14.710Z,7.5
2023-05-06T01:24:36.038Z,7.6
2023-05-06T01:26:43.923Z,7.6
2023-05-06T01:28:51.761Z,7.5
2023-05-06T01:31:03.583Z,7.5
2023-05-06T01:33:19.382Z,7.5
2023-05-06T01:35:36.704Z,7.5
2023-05-06T01:37:49.194Z,7.5
2023-05-06T01:40:04.062Z,7.5
2023-05-06T01:42:14.825Z,7.5
2023-05-06T01:44:23.872Z,7.4
2023-05-06T01:46:32.638Z,7.4
2023-05-06T01:48:41.364Z,7.4
2023-05-06T01:50:49.296Z,7.4
2023-05-06T01:52:59.352Z,7.4
2023-05-06T01:55:09.478Z,7.4
2023-05-06T01:57:17.396Z,7.4
2023-05-06T01:59:25.228Z,7.5
2023-05-06T02:01:33.003Z,7.4
2023-05-06T02:03:40.800Z,7.4
2023-05-06T02:05:48.568Z,7.4
2023-05-06T02:07:56.288Z,7.4
2023-05-06T02:10:04.483Z,7.4
2023-05-06T02:12:13.557Z,7.4
2023-05-06T02:14:21.295Z,7.4
2023-05-06T02:16:29.183Z,7.4
2023-05-06T02:18:36.982Z,7.4
2023-05-06T02:20:44.675Z,7.4
2023-05-06T02:22:52.448Z,7.3
2023-05-06T02:25:00.122Z,7.3
2023-05-06T02:27:07.951Z,7.3
2023-05-06T02:29:17.093Z,7.3
2023-05-06T02:31:25.019Z,7.3
2023-05-06T02:33:32.936Z,7.3
2023-05-06T02:35:40.885Z,7.3
2023-05-06T02:37:48.687Z,7.3
2023-05-06T02:39:58.884Z,7.3
2023-05-06T02:42:07.032Z,7.3
2023-05-06T02:44:14.771Z,7.3
2023-05-06T02:46:23.934Z,7.2
2023-05-06T02:48:31.643Z,7.2
2023-05-06T02:50:39.388Z,7.2
2023-05-06T02:52:47.080Z,7.2
2023-05-06T02:54:55.245Z,7.2
2023-05-06T02:57:03.007Z,7.2
2023-05-06T02:59:10.742Z,7.2
2023-05-06T03:01:18.578Z,7.2
2023-05-06T03:03:27.649Z,7.2
2023-05-06T03:05:35.412Z,7.2
2023-05-06T03:07:43.124Z,7.2
2023-05-06T03:09:51.061Z,7.1
2023-05-06T03:11:59.162Z,7.2
2023-05-06T03:14:07.525Z,7.2
2023-05-06T03:16:15.354Z,7.1
2023-05-06T03:18:23.198Z,7.1
2023-05-06T03:20:32.370Z,7.1
2023-05-06T03:22:42.348Z,7.1
2023-05-06T03:24:50.455Z,7.1
2023-05-06T03:26:58.624Z,7.1
2023-05-06T03:29:06.438Z,7.1
2023-05-06T03:31:14.588Z,7.1
2023-05-06T03:33:22.371Z,7.1
2023-05-06T03:35:31.669Z,7.1
2023-05-06T03:37:39.455Z,7.1
2023-05-06T03:39:47.641Z,7.1
2023-05-06T03:41:55.445Z,7
2023-05-06T03:44:03.181Z,7
2023-05-06T03:46:11.339Z,7
2023-05-06T03:48:19.083Z,7
2023-05-06T03:50:27.184Z,7
2023-05-06T03:52:36.450Z,7
2023-05-06T03:54:44.210Z,7
2023-05-06T03:56:52.045Z,7
2023-05-06T03:58:59.926Z,7
2023-05-06T04:01:07.684Z,7
2023-05-06T04:03:15.765Z,7
2023-05-06T04:05:23.644Z,7
2023-05-06T04:07:31.586Z,7
2023-05-06T04:09:46.248Z,6.9
2023-05-06T04:11:54.071Z,6.9
2023-05-06T04:14:02.490Z,6.9
2023-05-06T04:16:10.619Z,6.9
2023-05-06T04:18:19.995Z,6.9
2023-05-06T04:20:28.770Z,6.9
2023-05-06T04:22:36.614Z,6.9
2023-05-06T04:24:46.285Z,6.9
2023-05-06T04:26:54.110Z,6.9
2023-05-06T04:29:02.112Z,7
2023-05-06T04:31:10.363Z,7
2023-05-06T04:33:18.152Z,7
2023-05-06T04:35:27.126Z,6.9
2023-05-06T04:37:34.967Z,7
2023-05-06T04:39:46.922Z,6.9
2023-05-06T04:41:56.075Z,7
2023-05-06T04:44:04.683Z,6.9
2023-05-06T04:46:12.528Z,6.9
2023-05-06T04:48:22.009Z,6.9
2023-05-06T04:50:29.840Z,6.9
2023-05-06T04:52:37.694Z,6.9
2023-05-06T04:54:45.834Z,6.9
2023-05-06T04:56:54.670Z,6.9
2023-05-06T04:59:04.024Z,6.9
2023-05-06T05:01:12.383Z,6.9
2023-05-06T05:03:20.331Z,6.9
2023-05-06T05:05:29.500Z,6.9
2023-05-06T05:07:37.283Z,6.9
2023-05-06T05:09:45.489Z,6.9
2023-05-06T05:11:56.061Z,6.8
2023-05-06T05:14:05.466Z,6.8
2023-05-06T05:16:13.541Z,6.9
2023-05-06T05:18:21.414Z,6.8
2023-05-06T05:20:29.611Z,6.8
2023-05-06T05:22:37.499Z,6.9
2023-05-06T05:24:45.666Z,6.9
2023-05-06T05:26:53.793Z,6.8
2023-05-06T05:29:01.646Z,6.8
2023-05-06T05:31:11.330Z,6.8
2023-05-06T05:33:19.243Z,7
2023-05-06T05:35:27.222Z,6.9
2023-05-06T05:37:35.042Z,6.9
2023-05-06T05:39:42.815Z,6.9
2023-05-06T05:41:50.754Z,6.8
2023-05-06T05:43:58.544Z,6.8
2023-05-06T05:46:06.495Z,6.8
2023-05-06T05:48:15.693Z,6.9
2023-05-06T05:50:23.741Z,6.9
2023-05-06T05:52:31.601Z,6.9
2023-05-06T05:54:39.357Z,6.9
2023-05-06T05:56:47.080Z,6.9
2023-05-06T05:58:54.902Z,6.9
2023-05-06T06:01:04.079Z,6.8
2023-05-06T06:03:12.130Z,6.9
2023-05-06T06:05:21.298Z,6.9
2023-05-06T06:07:29.104Z,6.9
2023-05-06T06:09:38.594Z,6.8
2023-05-06T06:11:48.352Z,6.8
2023-05-06T06:13:56.300Z,6.8
2023-05-06T06:16:04.169Z,6.8
2023-05-06T06:18:11.932Z,6.8
2023-05-06T06:20:21.830Z,6.8
2023-05-06T06:22:29.953Z,6.8
2023-05-06T06:24:37.721Z,6.8
2023-05-06T06:26:45.461Z,6.8
2023-05-06T06:28:53.478Z,6.8
2023-05-06T06:31:01.951Z,6.8
2023-05-06T06:33:09.903Z,6.8
2023-05-06T06:35:18.988Z,6.8
2023-05-06T06:37:28.152Z,6.9
2023-05-06T06:39:35.925Z,6.9
2023-05-06T06:41:43.677Z,6.9
2023-05-06T06:43:51.408Z,6.9
2023-05-06T06:46:01.357Z,6.9
2023-05-06T06:48:09.204Z,6.9
2023-05-06T06:50:17.044Z,6.9
2023-05-06T06:52:24.757Z,7
2023-05-06T06:54:33.924Z,7
2023-05-06T06:56:42.328Z,7
2023-05-06T06:58:51.802Z,7
2023-05-06T07:01:02.352Z,7
2023-05-06T07:03:10.679Z,7
2023-05-06T07:05:19.342Z,7
2023-05-06T07:07:27.340Z,7
2023-05-06T07:09:37.317Z,7
2023-05-06T07:11:48.484Z,7
2023-05-06T07:13:56.773Z,7.1
2023-05-06T07:16:04.944Z,7.2
2023-05-06T07:18:12.789Z,7.2
2023-05-06T07:20:22.163Z,7.2
2023-05-06T07:22:30.522Z,7.2
2023-05-06T07:24:39.660Z,7.2
2023-05-06T07:26:48.599Z,7.2
2023-05-06T07:28:56.595Z,7.2
2023-05-06T07:31:04.418Z,7.2
2023-05-06T07:33:12.260Z,7.2
2023-05-06T07:35:21.038Z,7.2
2023-05-06T07:37:28.874Z,7.2
2023-05-06T07:39:36.956Z,7.2
2023-05-06T07:41:46.673Z,7.3
2023-05-06T07:43:54.556Z,7.2
2023-05-06T07:46:03.819Z,7.3
2023-05-06T07:48:11.904Z,7.3
2023-05-06T07:50:19.854Z,7.3
2023-05-06T07:52:28.380Z,7.3
2023-05-06T07:54:36.079Z,7.3
2023-05-06T07:56:43.989Z,7.4
2023-05-06T07:58:53.215Z,7.4
2023-05-06T08:01:00.971Z,7.4
2023-05-06T08:03:08.795Z,7.4
2023-05-06T08:05:18.416Z,7.4
2023-05-06T08:07:26.518Z,7.4
2023-05-06T08:09:34.465Z,7.4
2023-05-06T08:11:42.291Z,7.4
2023-05-06T08:13:50.564Z,7.4
2023-05-06T08:16:00.586Z,7.5
2023-05-06T08:18:18.340Z,7.5
2023-05-06T08:20:31.104Z,7.5
2023-05-06T08:22:39.694Z,7.5
2023-05-06T08:24:47.468Z,7.5
2023-05-06T08:26:56.141Z,7.5
2023-05-06T08:29:04.216Z,7.5
2023-05-06T08:31:20.820Z,7.5
2023-05-06T08:33:30.716Z,7.5
2023-05-06T08:35:38.431Z,7.6
2023-05-06T08:37:46.211Z,7.6
2023-05-06T08:39:54.021Z,7.7
2023-05-06T08:42:03.999Z,7.7
2023-05-06T08:44:18.442Z,7.7
2023-05-06T08:46:30.879Z,7.7
2023-05-06T08:48:38.707Z,7.8
2023-05-06T08:50:47.143Z,7.7
2023-05-06T08:52:55.252Z,7.6
2023-05-06T08:55:05.314Z,7.6
2023-05-06T08:57:14.408Z,7.7
2023-05-06T08:59:25.519Z,7.7
2023-05-06T09:01:34.867Z,7.7
2023-05-06T09:03:44.113Z,7.7
2023-05-06T09:05:51.936Z,7.7
2023-05-06T09:07:59.948Z,7.7
2023-05-06T09:10:08.950Z,7.7
2023-05-06T09:12:17.081Z,7.7
2023-05-06T09:14:25.373Z,7.7
2023-05-06T09:16:34.541Z,7.8
2023-05-06T09:18:42.389Z,7.8
2023-05-06T09:20:51.240Z,7.8
2023-05-06T09:22:59.153Z,7.8
2023-05-06T09:25:08.143Z,7.8
2023-05-06T09:27:16.204Z,7.8
2023-05-06T09:29:24.026Z,7.8
2023-05-06T09:31:33.830Z,7.9
2023-05-06T09:33:41.789Z,7.8
2023-05-06T09:35:49.956Z,7.8
2023-05-06T09:37:57.742Z,7.9
2023-05-06T09:40:06.755Z,7.9
2023-05-06T09:42:14.999Z,7.8
2023-05-06T09:44:23.385Z,7.8
2023-05-06T09:46:31.300Z,7.8
2023-05-06T09:48:41.542Z,7.8
2023-05-06T09:50:50.407Z,7.8
2023-05-06T09:52:59.742Z,7.8
2023-05-06T09:55:08.692Z,7.8
2023-05-06T09:57:19.875Z,7.8
2023-05-06T09:59:29.251Z,7.9
2023-05-06T10:01:37.929Z,7.9
2023-05-06T10:03:47.856Z,7.9
2023-05-06T10:05:57.243Z,7.8
2023-05-06T10:08:05.660Z,7.9
2023-05-06T10:10:13.699Z,7.9
2023-05-06T10:12:21.717Z,7.9
2023-05-06T10:14:30.008Z,7.9
2023-05-06T10:16:40.305Z,7.9
2023-05-06T10:18:51.449Z,7.9
2023-05-06T10:21:01.217Z,7.9
2023-05-06T10:23:15.945Z,7.9
2023-05-06T10:25:31.594Z,8
2023-05-06T10:27:42.011Z,8
2023-05-06T10:29:50.303Z,8
2023-05-06T10:32:03.279Z,8
2023-05-06T10:34:13.521Z,7.9
2023-05-06T10:36:23.499Z,7.9
2023-05-06T10:38:35.512Z,8
2023-05-06T10:40:44.605Z,8
2023-05-06T10:42:52.406Z,8
2023-05-06T10:45:04.220Z,8
2023-05-06T10:47:11.988Z,8
2023-05-06T10:49:21.712Z,8
2023-05-06T10:51:30.033Z,8
2023-05-06T10:54:02.220Z,8
2023-05-06T10:56:10.301Z,8
2023-05-06T10:58:20.074Z,8
2023-05-06T11:00:31.183Z,8
2023-05-06T11:02:40.554Z,8
2023-05-06T11:04:53.890Z,8.1
2023-05-06T11:07:09.279Z,8.1
2023-05-06T11:09:18.937Z,8.1
2023-05-06T11:11:51.949Z,8.1
2023-05-06T11:14:13.180Z,8.1
2023-05-06T11:16:48.518Z,8.2
2023-05-06T11:18:57.033Z,8.2
2023-05-06T11:21:42.384Z,8.2
2023-05-06T11:24:12.480Z,8.2
2023-05-06T11:26:21.082Z,8.3
2023-05-06T11:28:30.283Z,8.2
2023-05-06T11:30:39.679Z,8.2
2023-05-06T11:32:48.303Z,8.2
2023-05-06T11:34:57.408Z,8.2
2023-05-06T11:37:09.851Z,8.2
2023-05-06T11:39:17.678Z,8.3
2023-05-06T11:41:25.495Z,8.3
2023-05-06T11:43:33.593Z,8.3
2023-05-06T11:45:42.637Z,8.3
2023-05-06T11:47:50.590Z,8.3
2023-05-06T11:49:58.921Z,8.3
2023-05-06T11:52:09.091Z,8.3
2023-05-06T11:54:19.128Z,8.3
2023-05-06T11:56:26.882Z,8.3
2023-05-06T11:58:34.816Z,8.4
2023-05-06T12:00:50.496Z,8.4
2023-05-06T12:03:00.472Z,8.4
2023-05-06T12:05:10.285Z,8.5
2023-05-06T12:07:19.607Z,8.5
2023-05-06T12:09:27.975Z,8.5
2023-05-06T12:11:38.219Z,8.5
2023-05-06T12:13:46.414Z,8.6
2023-05-06T12:15:55.976Z,8.6
2023-05-06T12:18:03.953Z,8.6
2023-05-06T12:20:12.889Z,8.6
2023-05-06T12:22:24.515Z,8.7
2023-05-06T12:24:32.234Z,8.7
2023-05-06T12:26:45.584Z,8.7
2023-05-06T12:29:08.308Z,8.8
2023-05-06T12:31:20.121Z,8.8
2023-05-06T12:33:28.005Z,8.8
2023-05-06T12:35:36.510Z,8.9
2023-05-06T12:37:45.604Z,8.8
2023-05-06T12:39:53.396Z,8.9
2023-05-06T12:42:01.245Z,8.9
2023-05-06T12:44:41.964Z,8.9
2023-05-06T12:46:53.007Z,8.9
2023-05-06T12:49:01.738Z,8.9
2023-05-06T12:51:19.853Z,9
2023-05-06T12:53:44.374Z,9
2023-05-06T12:55:52.081Z,9
2023-05-06T12:58:00.987Z,9.1
2023-05-06T13:00:11.051Z,9
2023-05-06T13:02:19.354Z,9
2023-05-06T13:04:33.209Z,9.1
2023-05-06T13:06:41.032Z,9.1
2023-05-06T13:08:50.389Z,9.1
2023-05-06T13:10:59.681Z,9.1
2023-05-06T13:13:07.912Z,9.2
2023-05-06T13:15:16.080Z,9.3
2023-05-06T13:17:24.558Z,9.3
2023-05-06T13:19:33.398Z,9.4
2023-05-06T13:21:42.404Z,9.4
2023-05-06T13:23:51.504Z,9.5
2023-05-06T13:26:04.985Z,9.6
2023-05-06T13:28:14.775Z,9.5
2023-05-06T13:30:22.806Z,9.5
2023-05-06T13:32:30.664Z,9.5
2023-05-06T13:34:38.524Z,9.5
2023-05-06T13:36:47.786Z,9.5
2023-05-06T13:38:57.272Z,9.4
2023-05-06T13:41:05.245Z,9.4
2023-05-06T13:43:13.432Z,9.3
2023-05-06T13:45:21.424Z,9.4
2023-05-06T13:47:29.176Z,9.4
2023-05-06T13:49:36.954Z,9.4
2023-05-06T13:51:44.737Z,9.3
2023-05-06T13:53:52.557Z,9.4
2023-05-06T13:56:01.615Z,9.4
2023-05-06T13:58:09.428Z,9.3
2023-05-06T14:00:18.029Z,9.4
2023-05-06T14:02:26.457Z,9.4
2023-05-06T14:04:34.441Z,9.4
2023-05-06T14:06:42.808Z,9.4
2023-05-06T14:08:50.642Z,9.4
2023-05-06T14:10:58.429Z,9.3
2023-05-06T14:13:07.603Z,9.3
2023-05-06T14:15:15.751Z,9.3
2023-05-06T14:17:23.581Z,9.3
2023-05-06T14:19:31.306Z,9.3
2023-05-06T14:21:39.076Z,9.3
2023-05-06T14:23:46.831Z,9.3
2023-05-06T14:25:54.710Z,9.3
2023-05-06T14:28:03.123Z,9.3
2023-05-06T14:30:13.472Z,9.3
2023-05-06T14:32:21.259Z,9.3
2023-05-06T14:34:29.123Z,9.3
2023-05-06T14:36:36.891Z,9.3
2023-05-06T14:38:44.672Z,9.3
2023-05-06T14:40:52.409Z,9.3
2023-05-06T14:43:00.267Z,9.3
2023-05-06T14:45:09.510Z,9.3
2023-05-06T14:47:18.998Z,9.3
2023-05-06T14:49:26.781Z,9.3
2023-05-06T14:51:34.523Z,9.3
2023-05-06T14:53:42.620Z,9.3
2023-05-06T14:55:50.449Z,9.4
2023-05-06T14:57:58.151Z,9.4
2023-05-06T15:00:10.307Z,9.4
2023-05-06T15:02:19.615Z,9.4
2023-05-06T15:04:27.757Z,9.4
2023-05-06T15:06:36.553Z,9.4
2023-05-06T15:08:44.348Z,9.5
2023-05-06T15:10:52.150Z,9.4
2023-05-06T15:12:59.988Z,9.5
2023-05-06T15:15:09.467Z,9.4
2023-05-06T15:17:18.881Z,9.4
2023-05-06T15:19:26.603Z,9.5
2023-05-06T15:21:34.420Z,9.5
2023-05-06T15:23:42.206Z,9.5
2023-05-06T15:25:50.243Z,9.5
2023-05-06T15:27:58.437Z,9.6
2023-05-06T15:30:07.747Z,9.6
2023-05-06T15:32:15.678Z,9.5
2023-05-06T15:34:24.858Z,9.6
2023-05-06T15:36:33.269Z,9.6
2023-05-06T15:38:59.087Z,9.6
2023-05-06T15:41:09.061Z,9.6
2023-05-06T15:43:22.652Z,9.7
2023-05-06T15:45:32.343Z,9.6
2023-05-06T15:47:40.125Z,9.7
2023-05-06T15:49:52.593Z,9.7
2023-05-06T15:52:03.614Z,9.7
2023-05-06T15:54:11.412Z,9.7
2023-05-06T15:56:19.184Z,9.7
2023-05-06T15:58:27.660Z,9.6
2023-05-06T16:00:35.495Z,9.6
2023-05-06T16:02:43.382Z,9.6
2023-05-06T16:04:52.592Z,9.7
2023-05-06T16:07:00.666Z,9.7
2023-05-06T16:09:08.792Z,9.6
2023-05-06T16:11:16.642Z,9.6
2023-05-06T16:13:24.513Z,9.6
2023-05-06T16:15:32.341Z,9.6
2023-05-06T16:17:40.433Z,9.6
2023-05-06T16:19:48.142Z,9.6
2023-05-06T16:21:57.710Z,9.6
2023-05-06T16:24:05.759Z,9.6
2023-05-06T16:26:15.105Z,9.6
2023-05-06T16:28:22.862Z,9.6
2023-05-06T16:30:30.957Z,9.6
2023-05-06T16:32:38.711Z,9.6
2023-05-06T16:34:46.449Z,9.6
2023-05-06T16:36:54.400Z,9.6
2023-05-06T16:39:03.491Z,9.6
2023-05-06T16:41:11.195Z,9.6
2023-05-06T16:43:19.393Z,9.6
2023-05-06T16:45:27.181Z,9.6
2023-05-06T16:47:35.955Z,9.6
2023-05-06T16:49:44.155Z,9.6
2023-05-06T16:51:51.904Z,9.6
2023-05-06T16:53:59.807Z,9.6
2023-05-06T16:56:09.927Z,9.6
2023-05-06T16:58:17.632Z,9.6
2023-05-06T17:00:26.165Z,9.6
2023-05-06T17:02:33.933Z,9.5
2023-05-06T17:04:42.522Z,9.7
2023-05-06T17:06:50.504Z,9.6
2023-05-06T17:08:58.721Z,9.6
2023-05-06T17:11:07.473Z,9.7
2023-05-06T17:13:16.577Z,9.7
2023-05-06T17:15:24.513Z,9.7
2023-05-06T17:17:32.642Z,9.7
2023-05-06T17:19:40.388Z,9.7
2023-05-06T17:21:48.866Z,9.8
2023-05-06T17:23:56.595Z,9.7
2023-05-06T17:26:09.746Z,9.8
2023-05-06T17:28:20.486Z,9.7
2023-05-06T17:30:28.294Z,9.8
2023-05-06T17:32:36.072Z,9.7
2023-05-06T17:34:44.021Z,9.7
2023-05-06T17:36:51.728Z,9.7
2023-05-06T17:39:03.218Z,9.7
2023-05-06T17:41:11.098Z,9.6
2023-05-06T17:43:20.376Z,9.6
2023-05-06T17:45:28.775Z,9.6
2023-05-06T17:47:36.586Z,9.6
2023-05-06T17:49:45.501Z,9.6
2023-05-06T17:51:53.620Z,9.6
2023-05-06T17:54:01.340Z,9.6
2023-05-06T17:56:09.095Z,9.6
2023-05-06T17:58:16.817Z,9.6
2023-05-06T18:00:26.690Z,9.6
2023-05-06T18:02:34.954Z,9.6
2023-05-06T18:04:47.224Z,9.6
2023-05-06T18:06:54.912Z,9.6
2023-05-06T18:09:02.700Z,9.6
2023-05-06T18:11:10.810Z,9.6
2023-05-06T18:13:18.708Z,9.6
2023-05-06T18:15:28.164Z,9.6
2023-05-06T18:17:35.914Z,9.6
2023-05-06T18:19:43.678Z,9.6
2023-05-06T18:21:51.441Z,9.5
2023-05-06T18:24:05.793Z,9.5
2023-05-06T18:26:39.713Z,9.5
2023-05-06T18:28:51.030Z,9.5
2023-05-06T18:31:00.349Z,9.4
2023-05-06T18:33:08.488Z,9.4
2023-05-06T18:35:16.268Z,9.4
2023-05-06T18:37:24.096Z,9.4
2023-05-06T18:39:32.075Z,9.4
2023-05-06T18:41:39.791Z,9.3
2023-05-06T18:43:47.506Z,9.3
2023-05-06T18:45:55.466Z,9.3
2023-05-06T18:48:05.107Z,9.3
2023-05-06T18:50:13.094Z,9.3
2023-05-06T18:52:21.146Z,9.3
2023-05-06T18:54:28.984Z,9.3
2023-05-06T18:56:37.399Z,9.3
2023-05-06T18:58:45.395Z,9.3
2023-05-06T19:00:54.092Z,9.3
2023-05-06T19:03:01.946Z,9.3
2023-05-06T19:05:11.663Z,9.3
2023-05-06T19:07:19.605Z,9.2
2023-05-06T19:09:27.467Z,9.3
2023-05-06T19:11:35.358Z,9.3
2023-05-06T19:13:43.536Z,9.3
2023-05-06T19:15:51.358Z,9.2
2023-05-06T19:17:59.194Z,9.2
2023-05-06T19:20:08.478Z,9.2
2023-05-06T19:22:18.080Z,9.2
2023-05-06T19:24:26.131Z,9.2
2023-05-06T19:26:34.385Z,9.2
2023-05-06T19:28:42.296Z,9.2
2023-05-06T19:30:50.701Z,9.2
2023-05-06T19:32:59.094Z,9.2
2023-05-06T19:35:09.066Z,9.2
2023-05-06T19:37:18.503Z,9.2
2023-05-06T19:39:26.268Z,9.2
2023-05-06T19:41:34.527Z,9.2
2023-05-06T19:43:42.950Z,9.2
2023-05-06T19:45:50.829Z,9.2
2023-05-06T19:47:58.648Z,9.2
2023-05-06T19:50:07.553Z,9.2
2023-05-06T19:52:15.439Z,9.2
2023-05-06T19:54:24.724Z,9.2
2023-05-06T19:56:32.439Z,9.2
2023-05-06T19:58:40.764Z,9.2
2023-05-06T20:00:49.569Z,9.2
2023-05-06T20:02:59.052Z,9.2
2023-05-06T20:05:07.684Z,9.2
2023-05-06T20:07:16.323Z,9.2
2023-05-06T20:09:25.869Z,9.2
2023-05-06T20:11:33.576Z,9.2
2023-05-06T20:13:41.272Z,9.3
2023-05-06T20:15:49.726Z,9.2
2023-05-06T20:17:57.511Z,9.2
2023-05-06T20:20:09.564Z,9.2
2023-05-06T20:22:17.727Z,9.2
2023-05-06T20:24:30.037Z,9.2
2023-05-06T20:26:37.746Z,9.2
2023-05-06T20:28:45.615Z,9.2
2023-05-06T20:30:55.699Z,9.2
2023-05-06T20:33:03.452Z,9.1
2023-05-06T20:35:11.971Z,9.2
2023-05-06T20:37:21.283Z,9.1
2023-05-06T20:39:30.418Z,9.1
2023-05-06T20:41:38.370Z,9.2
2023-05-06T20:43:46.089Z,9.2
2023-05-06T20:45:53.849Z,9.2
2023-05-06T20:48:01.657Z,9.2
2023-05-06T20:50:16.477Z,9.1
2023-05-06T20:52:24.398Z,9.1
2023-05-06T20:54:33.500Z,9.1
2023-05-06T20:56:42.767Z,9.1
2023-05-06T20:58:50.589Z,9.1
2023-05-06T21:00:59.175Z,9.1
2023-05-06T21:03:07.153Z,9
2023-05-06T21:05:15.029Z,9
2023-05-06T21:07:22.795Z,9
2023-05-06T21:09:30.861Z,9
2023-05-06T21:11:39.967Z,9.1
2023-05-06T21:13:48.881Z,9.1
2023-05-06T21:15:59.375Z,9
2023-05-06T21:18:07.216Z,9
2023-05-06T21:20:15.109Z,9
2023-05-06T21:22:23.352Z,9
2023-05-06T21:24:31.389Z,9
2023-05-06T21:26:41.179Z,9
2023-05-06T21:28:52.260Z,9
2023-05-06T21:31:00.278Z,9
2023-05-06T21:33:10.975Z,9
2023-05-06T21:35:18.835Z,9
2023-05-06T21:37:26.583Z,9
2023-05-06T21:39:34.897Z,9
2023-05-06T21:41:43.988Z,9.1
2023-05-06T21:43:51.666Z,9
2023-05-06T21:45:59.718Z,9
2023-05-06T21:48:08.094Z,9.1
2023-05-06T21:50:16.463Z,9.1
2023-05-06T21:52:24.538Z,9.1
2023-05-06T21:54:32.267Z,9.1
2023-05-06T21:56:39.980Z,9.1
2023-05-06T21:58:49.296Z,9.1
2023-05-06T22:00:57.250Z,9.1
2023-05-06T22:03:05.113Z,9.1
2023-05-06T22:05:13.373Z,9.1
2023-05-06T22:07:21.602Z,9.1
2023-05-06T22:09:29.912Z,9.1
2023-05-06T22:11:38.822Z,9.1
2023-05-06T22:13:57.279Z,9.2
2023-05-06T22:16:06.080Z,9.1
2023-05-06T22:18:14.129Z,9.2
2023-05-06T22:20:23.073Z,9.2
2023-05-06T22:22:31.156Z,9.2
2023-05-06T22:24:48.960Z,9.2
2023-05-06T22:26:56.949Z,9.3
2023-05-06T22:29:06.704Z,9.2
2023-05-06T22:31:15.561Z,9.3
2023-05-06T22:33:26.628Z,9.2
2023-05-06T22:35:34.618Z,9.2
2023-05-06T22:37:42.735Z,9.3
2023-05-06T22:40:08.111Z,9.3
2023-05-06T22:42:16.427Z,9.3
2023-05-06T22:44:25.708Z,9.3
2023-05-06T22:46:33.508Z,9.3
2023-05-06T22:48:44.777Z,9.3
2023-05-06T22:50:52.869Z,9.3
2023-05-06T22:53:07.520Z,9.3
2023-05-06T22:55:21.820Z,9.2
2023-05-06T22:57:30.199Z,9.3
2023-05-06T22:59:39.520Z,9.3
2023-05-06T23:01:47.595Z,9.3
2023-05-06T23:03:55.507Z,9.3
2023-05-06T23:06:05.725Z,9.3
2023-05-06T23:08:13.598Z,9.3
2023-05-06T23:10:21.451Z,9.3
2023-05-06T23:12:33.675Z,9.3
2023-05-06T23:14:42.762Z,9.3
2023-05-06T23:16:50.758Z,9.3
2023-05-06T23:18:58.666Z,9.3
2023-05-06T23:21:06.729Z,9.4
2023-05-06T23:23:14.553Z,9.3
2023-05-06T23:25:22.311Z,9.4
2023-05-06T23:27:30.209Z,9.4
2023-05-06T23:29:38.070Z,9.3
2023-05-06T23:31:48.018Z,9.4
2023-05-06T23:33:55.900Z,9.4
2023-05-06T23:36:03.754Z,9.4
2023-05-06T23:38:11.540Z,9.4
2023-05-06T23:40:19.284Z,9.4
2023-05-06T23:42:27.103Z,9.4
2023-05-06T23:44:34.821Z,9.4
2023-05-06T23:46:42.587Z,9.4
2023-05-06T23:48:52.442Z,9.4
2023-05-06T23:51:00.146Z,9.4
2023-05-06T23:53:08.037Z,9.5
2023-05-06T23:55:15.891Z,9.5
2023-05-06T23:57:23.681Z,9.5
2023-05-06T23:59:33.417Z,9.5
